sensor_id;sensor_type;location;lat;lon;timestamp;pressure;altitude;pressure_sealevel;temperature;humidity
66857;BME280;53766;50.280;19.160;2023-05-14T00:01:57;98903.09;;;18.28;38.81
66857;BME280;53766;50.280;19.160;2023-05-14T00:04:24;98900.41;;;18.28;38.56
66857;BME280;53766;50.280;19.160;2023-05-14T00:06:52;98898.78;;;18.27;38.73
66857;BME280;53766;50.280;19.160;2023-05-14T00:09:19;98892.41;;;18.28;38.77
66857;BME280;53766;50.280;19.160;2023-05-14T00:11:47;98896.94;;;18.27;38.74
66857;BME280;53766;50.280;19.160;2023-05-14T00:14:15;98896.13;;;18.27;38.76
66857;BME280;53766;50.280;19.160;2023-05-14T00:16:42;98891.78;;;18.26;38.72
66857;BME280;53766;50.280;19.160;2023-05-14T00:19:09;98891.78;;;18.26;38.83
66857;BME280;53766;50.280;19.160;2023-05-14T00:21:38;98893.63;;;18.25;38.70
66857;BME280;53766;50.280;19.160;2023-05-14T00:24:05;98899.78;;;18.26;38.89
66857;BME280;53766;50.280;19.160;2023-05-14T00:26:33;98891.97;;;18.24;38.69
66857;BME280;53766;50.280;19.160;2023-05-14T00:29:00;98890.16;;;18.25;38.75
66857;BME280;53766;50.280;19.160;2023-05-14T00:31:27;98892.19;;;18.23;38.93
66857;BME280;53766;50.280;19.160;2023-05-14T00:33:55;98887.47;;;18.25;38.91
66857;BME280;53766;50.280;19.160;2023-05-14T00:36:23;98891.16;;;18.24;38.74
66857;BME280;53766;50.280;19.160;2023-05-14T00:38:50;98889.50;;;18.23;38.78
66857;BME280;53766;50.280;19.160;2023-05-14T00:41:17;98894.84;;;18.23;38.85
66857;BME280;53766;50.280;19.160;2023-05-14T00:43:45;98894.84;;;18.23;38.82
66857;BME280;53766;50.280;19.160;2023-05-14T00:46:13;98883.34;;;18.22;38.86
66857;BME280;53766;50.280;19.160;2023-05-14T00:48:41;98891.34;;;18.22;38.87
66857;BME280;53766;50.280;19.160;2023-05-14T00:51:08;98887.03;;;18.21;38.92
66857;BME280;53766;50.280;19.160;2023-05-14T00:53:36;98883.53;;;18.21;38.82
66857;BME280;53766;50.280;19.160;2023-05-14T00:56:04;98891.53;;;18.21;38.91
66857;BME280;53766;50.280;19.160;2023-05-14T00:58:32;98888.88;;;18.21;38.83
66857;BME280;53766;50.280;19.160;2023-05-14T01:00:59;98894.22;;;18.21;38.89
66857;BME280;53766;50.280;19.160;2023-05-14T01:03:28;98889.88;;;18.20;38.95
66857;BME280;53766;50.280;19.160;2023-05-14T01:08:44;98889.88;;;18.20;38.87
66857;BME280;53766;50.280;19.160;2023-05-14T01:11:32;98888.25;;;18.19;38.91
66857;BME280;53766;50.280;19.160;2023-05-14T01:16:51;98884.94;;;18.17;38.96
66857;BME280;53766;50.280;19.160;2023-05-14T01:19:40;98882.28;;;18.17;38.93
66857;BME280;53766;50.280;19.160;2023-05-14T01:22:09;98882.28;;;18.17;38.82
66857;BME280;53766;50.280;19.160;2023-05-14T01:24:38;98878.59;;;18.18;38.89
66857;BME280;53766;50.280;19.160;2023-05-14T01:27:16;98883.28;;;18.16;39.01
66857;BME280;53766;50.280;19.160;2023-05-14T01:29:51;98884.94;;;18.17;38.93
66857;BME280;53766;50.280;19.160;2023-05-14T01:32:24;98881.63;;;18.15;38.90
66857;BME280;53766;50.280;19.160;2023-05-14T01:34:54;98885.94;;;18.16;38.97
66857;BME280;53766;50.280;19.160;2023-05-14T01:37:24;98885.31;;;18.14;38.88
66857;BME280;53766;50.280;19.160;2023-05-14T01:39:54;98885.31;;;18.14;38.93
66857;BME280;53766;50.280;19.160;2023-05-14T01:42:22;98880.81;;;18.14;38.98
66857;BME280;53766;50.280;19.160;2023-05-14T01:44:50;98883.66;;;18.13;38.92
66857;BME280;53766;50.280;19.160;2023-05-14T01:47:18;98887.34;;;18.12;38.94
66857;BME280;53766;50.280;19.160;2023-05-14T01:49:45;98886.34;;;18.13;38.97
66857;BME280;53766;50.280;19.160;2023-05-14T01:52:13;98887.16;;;18.13;39.07
66857;BME280;53766;50.280;19.160;2023-05-14T01:54:40;98887.34;;;18.12;39.10
66857;BME280;53766;50.280;19.160;2023-05-14T01:57:08;98880.38;;;18.11;38.90
66857;BME280;53766;50.280;19.160;2023-05-14T01:59:35;98876.69;;;18.12;38.93
66857;BME280;53766;50.280;19.160;2023-05-14T02:02:03;98877.72;;;18.11;39.03
66857;BME280;53766;50.280;19.160;2023-05-14T02:04:31;98875.03;;;18.11;39.11
66857;BME280;53766;50.280;19.160;2023-05-14T02:06:58;98881.41;;;18.09;38.95
66857;BME280;53766;50.280;19.160;2023-05-14T02:09:25;98878.72;;;18.09;39.07
66857;BME280;53766;50.280;19.160;2023-05-14T02:11:53;98879.72;;;18.08;38.96
66857;BME280;53766;50.280;19.160;2023-05-14T02:14:21;98882.41;;;18.08;39.05
66857;BME280;53766;50.280;19.160;2023-05-14T02:16:49;98880.75;;;18.07;39.06
66857;BME280;53766;50.280;19.160;2023-05-14T02:19:17;98882.41;;;18.08;39.04
66857;BME280;53766;50.280;19.160;2023-05-14T02:21:45;98879.91;;;18.07;39.11
66857;BME280;53766;50.280;19.160;2023-05-14T02:24:13;98879.09;;;18.06;39.00
66857;BME280;53766;50.280;19.160;2023-05-14T02:26:40;98879.09;;;18.06;39.04
66857;BME280;53766;50.280;19.160;2023-05-14T02:29:08;98870.47;;;18.04;39.17
66857;BME280;53766;50.280;19.160;2023-05-14T02:31:36;98874.81;;;18.05;39.10
66857;BME280;53766;50.280;19.160;2023-05-14T02:34:04;98870.47;;;18.04;39.08
66857;BME280;53766;50.280;19.160;2023-05-14T02:36:33;98875.81;;;18.04;39.06
66857;BME280;53766;50.280;19.160;2023-05-14T02:39:00;98879.50;;;18.03;38.97
66857;BME280;53766;50.280;19.160;2023-05-14T02:41:28;98874.97;;;18.04;39.13
66857;BME280;53766;50.280;19.160;2023-05-14T02:43:55;98869.84;;;18.02;39.14
66857;BME280;53766;50.280;19.160;2023-05-14T02:46:23;98872.31;;;18.04;39.13
66857;BME280;53766;50.280;19.160;2023-05-14T02:48:51;98872.50;;;18.02;39.13
66857;BME280;53766;50.280;19.160;2023-05-14T02:51:19;98863.69;;;18.02;39.15
66857;BME280;53766;50.280;19.160;2023-05-14T02:53:47;98860.19;;;18.01;39.34
66857;BME280;53766;50.280;19.160;2023-05-14T02:56:14;98852.22;;;18.01;39.00
66857;BME280;53766;50.280;19.160;2023-05-14T02:58:42;98854.06;;;18.01;39.01
66857;BME280;53766;50.280;19.160;2023-05-14T03:01:10;98852.38;;;18.00;39.10
66857;BME280;53766;50.280;19.160;2023-05-14T03:03:38;98845.22;;;18.00;39.14
66857;BME280;53766;50.280;19.160;2023-05-14T03:06:06;98837.22;;;18.00;38.99
66857;BME280;53766;50.280;19.160;2023-05-14T03:08:34;98846.25;;;17.99;39.02
66857;BME280;53766;50.280;19.160;2023-05-14T03:11:02;98833.91;;;17.98;39.15
66857;BME280;53766;50.280;19.160;2023-05-14T03:13:29;98840.09;;;17.99;39.00
66857;BME280;53766;50.280;19.160;2023-05-14T03:15:57;98840.09;;;17.99;39.11
66857;BME280;53766;50.280;19.160;2023-05-14T03:18:24;98828.59;;;17.98;39.18
66857;BME280;53766;50.280;19.160;2023-05-14T03:20:54;98827.78;;;17.98;39.17
66857;BME280;53766;50.280;19.160;2023-05-14T03:23:21;98822.63;;;17.96;39.09
66857;BME280;53766;50.280;19.160;2023-05-14T03:25:49;98819.78;;;17.98;39.07
66857;BME280;53766;50.280;19.160;2023-05-14T03:28:17;98822.44;;;17.98;39.15
66857;BME280;53766;50.280;19.160;2023-05-14T03:30:44;98816.28;;;17.97;39.22
66857;BME280;53766;50.280;19.160;2023-05-14T03:33:12;98821.63;;;17.97;39.01
66857;BME280;53766;50.280;19.160;2023-05-14T03:35:39;98826.13;;;17.97;39.16
66857;BME280;53766;50.280;19.160;2023-05-14T03:38:07;98832.28;;;17.97;38.98
66857;BME280;53766;50.280;19.160;2023-05-14T03:40:34;98831.47;;;17.97;39.01
66857;BME280;53766;50.280;19.160;2023-05-14T03:43:02;98829.63;;;17.97;39.17
66857;BME280;53766;50.280;19.160;2023-05-14T03:45:30;98827.78;;;17.98;39.11
66857;BME280;53766;50.280;19.160;2023-05-14T03:47:58;98825.91;;;17.98;38.93
66857;BME280;53766;50.280;19.160;2023-05-14T03:50:26;98825.75;;;18.00;39.28
66857;BME280;53766;50.280;19.160;2023-05-14T03:52:53;98816.94;;;17.99;39.16
66857;BME280;53766;50.280;19.160;2023-05-14T03:55:21;98815.91;;;18.00;39.04
66857;BME280;53766;50.280;19.160;2023-05-14T03:57:48;98820.22;;;18.01;39.10
66857;BME280;53766;50.280;19.160;2023-05-14T04:00:16;98819.19;;;18.02;38.99
66857;BME280;53766;50.280;19.160;2023-05-14T04:02:44;98816.75;;;18.01;39.06
66857;BME280;53766;50.280;19.160;2023-05-14T04:05:11;98817.56;;;18.01;39.07
66857;BME280;53766;50.280;19.160;2023-05-14T04:07:39;98817.56;;;18.01;38.90
66857;BME280;53766;50.280;19.160;2023-05-14T04:10:07;98818.38;;;18.02;38.95
66857;BME280;53766;50.280;19.160;2023-05-14T04:12:34;98824.34;;;18.04;39.12
66857;BME280;53766;50.280;19.160;2023-05-14T04:15:02;98819.19;;;18.02;38.93
66857;BME280;53766;50.280;19.160;2023-05-14T04:17:30;98816.53;;;18.02;38.94
66857;BME280;53766;50.280;19.160;2023-05-14T04:19:57;98824.53;;;18.02;39.00
66857;BME280;53766;50.280;19.160;2023-05-14T04:22:24;98824.53;;;18.02;38.94
66857;BME280;53766;50.280;19.160;2023-05-14T04:24:52;98823.53;;;18.03;38.86
66857;BME280;53766;50.280;19.160;2023-05-14T04:27:19;98829.84;;;18.02;39.00
66857;BME280;53766;50.280;19.160;2023-05-14T04:29:49;98824.34;;;18.04;39.03
66857;BME280;53766;50.280;19.160;2023-05-14T04:32:16;98826.19;;;18.03;39.07
66857;BME280;53766;50.280;19.160;2023-05-14T04:34:44;98826.19;;;18.03;39.03
66857;BME280;53766;50.280;19.160;2023-05-14T04:37:13;98826.19;;;18.03;39.05
66857;BME280;53766;50.280;19.160;2023-05-14T04:39:40;98821.69;;;18.04;39.10
66857;BME280;53766;50.280;19.160;2023-05-14T04:42:08;98819.19;;;18.02;39.08
66857;BME280;53766;50.280;19.160;2023-05-14T04:44:36;98817.34;;;18.03;39.12
66857;BME280;53766;50.280;19.160;2023-05-14T04:47:06;98818.19;;;18.03;38.99
66857;BME280;53766;50.280;19.160;2023-05-14T04:49:34;98824.16;;;18.05;39.10
66857;BME280;53766;50.280;19.160;2023-05-14T04:52:01;98824.16;;;18.05;38.96
66857;BME280;53766;50.280;19.160;2023-05-14T04:54:29;98825.78;;;18.06;39.04
66857;BME280;53766;50.280;19.160;2023-05-14T04:56:56;98822.94;;;18.08;39.04
66857;BME280;53766;50.280;19.160;2023-05-14T04:59:24;98817.63;;;18.08;39.00
66857;BME280;53766;50.280;19.160;2023-05-14T05:01:52;98816.59;;;18.09;39.04
66857;BME280;53766;50.280;19.160;2023-05-14T05:04:19;98819.06;;;18.11;38.95
66857;BME280;53766;50.280;19.160;2023-05-14T05:06:47;98818.03;;;18.12;39.14
66857;BME280;53766;50.280;19.160;2023-05-14T05:09:16;98819.50;;;18.14;39.01
66857;BME280;53766;50.280;19.160;2023-05-14T05:11:43;98815.63;;;18.17;39.12
66857;BME280;53766;50.280;19.160;2023-05-14T05:14:11;98816.25;;;18.19;38.88
66857;BME280;53766;50.280;19.160;2023-05-14T05:16:38;98812.38;;;18.21;39.11
66857;BME280;53766;50.280;19.160;2023-05-14T05:19:06;98808.69;;;18.22;38.97
66857;BME280;53766;50.280;19.160;2023-05-14T05:21:33;98811.97;;;18.24;39.00
66857;BME280;53766;50.280;19.160;2023-05-14T05:24:01;98803.81;;;18.26;38.91
66857;BME280;53766;50.280;19.160;2023-05-14T05:26:28;98800.13;;;18.27;38.99
66857;BME280;53766;50.280;19.160;2023-05-14T05:28:56;98812.44;;;18.28;39.14
66857;BME280;53766;50.280;19.160;2023-05-14T05:31:23;98807.09;;;18.28;38.85
66857;BME280;53766;50.280;19.160;2023-05-14T05:33:51;98807.91;;;18.28;39.03
66857;BME280;53766;50.280;19.160;2023-05-14T05:36:18;98807.91;;;18.28;39.22
66857;BME280;53766;50.280;19.160;2023-05-14T05:38:46;98801.78;;;18.28;39.36
66857;BME280;53766;50.280;19.160;2023-05-14T05:41:14;98800.13;;;18.27;39.30
66857;BME280;53766;50.280;19.160;2023-05-14T05:43:41;98794.81;;;18.27;39.33
66857;BME280;53766;50.280;19.160;2023-05-14T05:46:09;98806.28;;;18.27;39.39
66857;BME280;53766;50.280;19.160;2023-05-14T05:48:36;98807.09;;;18.28;39.27
66857;BME280;53766;50.280;19.160;2023-05-14T05:51:04;98808.13;;;18.27;39.37
66857;BME280;53766;50.280;19.160;2023-05-14T05:53:31;98802.81;;;18.27;39.27
66857;BME280;53766;50.280;19.160;2023-05-14T05:55:59;98803.81;;;18.26;39.34
66857;BME280;53766;50.280;19.160;2023-05-14T05:58:26;98806.47;;;18.26;39.40
66857;BME280;53766;50.280;19.160;2023-05-14T06:00:54;98807.28;;;18.26;39.36
66857;BME280;53766;50.280;19.160;2023-05-14T06:03:24;98803.81;;;18.26;39.38
66857;BME280;53766;50.280;19.160;2023-05-14T06:05:51;98809.13;;;18.26;39.38
66857;BME280;53766;50.280;19.160;2023-05-14T06:08:19;98806.28;;;18.27;39.44
66857;BME280;53766;50.280;19.160;2023-05-14T06:10:46;98816.13;;;18.27;39.41
66857;BME280;53766;50.280;19.160;2023-05-14T06:13:14;98805.47;;;18.27;39.41
66857;BME280;53766;50.280;19.160;2023-05-14T06:15:41;98806.28;;;18.27;39.42
66857;BME280;53766;50.280;19.160;2023-05-14T06:18:09;98800.13;;;18.27;39.48
66857;BME280;53766;50.280;19.160;2023-05-14T06:20:36;98796.44;;;18.28;39.44
66857;BME280;53766;50.280;19.160;2023-05-14T06:23:04;98789.47;;;18.27;39.42
66857;BME280;53766;50.280;19.160;2023-05-14T06:25:32;98788.44;;;18.28;39.49
66857;BME280;53766;50.280;19.160;2023-05-14T06:28:00;98785.78;;;18.28;39.28
66857;BME280;53766;50.280;19.160;2023-05-14T06:30:27;98786.59;;;18.28;39.54
66857;BME280;53766;50.280;19.160;2023-05-14T06:32:55;98791.72;;;18.30;39.39
66857;BME280;53766;50.280;19.160;2023-05-14T06:35:22;98787.41;;;18.29;39.50
66857;BME280;53766;50.280;19.160;2023-05-14T06:37:50;98781.25;;;18.28;39.40
66857;BME280;53766;50.280;19.160;2023-05-14T06:40:18;98781.06;;;18.30;39.49
66857;BME280;53766;50.280;19.160;2023-05-14T06:42:47;98783.72;;;18.30;39.50
66857;BME280;53766;50.280;19.160;2023-05-14T06:45:15;98771.03;;;18.32;39.48
66857;BME280;53766;50.280;19.160;2023-05-14T06:47:42;98771.84;;;18.33;39.51
66857;BME280;53766;50.280;19.160;2023-05-14T06:50:10;98774.31;;;18.34;39.46
66857;BME280;53766;50.280;19.160;2023-05-14T06:52:37;98779.66;;;18.34;39.38
66857;BME280;53766;50.280;19.160;2023-05-14T06:55:05;98772.66;;;18.33;39.56
66857;BME280;53766;50.280;19.160;2023-05-14T06:57:33;98779.66;;;18.34;39.53
66857;BME280;53766;50.280;19.160;2023-05-14T07:00:00;98777.63;;;18.36;39.72
66857;BME280;53766;50.280;19.160;2023-05-14T07:02:30;98783.78;;;18.37;39.59
66857;BME280;53766;50.280;19.160;2023-05-14T07:04:57;98775.59;;;18.38;39.61
66857;BME280;53766;50.280;19.160;2023-05-14T07:07:25;98771.06;;;18.39;39.69
66857;BME280;53766;50.280;19.160;2023-05-14T07:09:52;98767.38;;;18.40;39.76
66857;BME280;53766;50.280;19.160;2023-05-14T07:12:20;98766.19;;;18.42;39.70
66857;BME280;53766;50.280;19.160;2023-05-14T07:14:47;98763.50;;;18.42;39.78
66857;BME280;53766;50.280;19.160;2023-05-14T07:17:15;98761.47;;;18.44;39.67
66857;BME280;53766;50.280;19.160;2023-05-14T07:19:43;98771.13;;;18.45;39.95
66857;BME280;53766;50.280;19.160;2023-05-14T07:22:10;98776.44;;;18.45;39.88
66857;BME280;53766;50.280;19.160;2023-05-14T07:24:38;98768.44;;;18.45;39.69
66857;BME280;53766;50.280;19.160;2023-05-14T07:27:05;98769.06;;;18.47;39.90
66857;BME280;53766;50.280;19.160;2023-05-14T07:29:32;98788.38;;;18.49;39.89
66857;BME280;53766;50.280;19.160;2023-05-14T07:32:03;98785.72;;;18.49;39.95
66857;BME280;53766;50.280;19.160;2023-05-14T07:34:30;98789.00;;;18.52;40.00
66857;BME280;53766;50.280;19.160;2023-05-14T07:36:59;98789.00;;;18.52;39.90
66857;BME280;53766;50.280;19.160;2023-05-14T07:39:26;98781.81;;;18.52;39.90
66857;BME280;53766;50.280;19.160;2023-05-14T07:41:54;98792.31;;;18.54;40.01
66857;BME280;53766;50.280;19.160;2023-05-14T07:44:21;98784.31;;;18.54;39.98
66857;BME280;53766;50.280;19.160;2023-05-14T07:46:49;98790.25;;;18.56;39.99
66857;BME280;53766;50.280;19.160;2023-05-14T07:49:17;98789.22;;;18.57;40.20
66857;BME280;53766;50.280;19.160;2023-05-14T07:51:45;98790.88;;;18.58;40.08
66857;BME280;53766;50.280;19.160;2023-05-14T07:54:12;98781.03;;;18.58;40.11
66857;BME280;53766;50.280;19.160;2023-05-14T07:56:39;98779.00;;;18.60;40.07
66857;BME280;53766;50.280;19.160;2023-05-14T07:59:07;98769.16;;;18.61;40.19
66857;BME280;53766;50.280;19.160;2023-05-14T08:01:34;98776.16;;;18.62;40.13
66857;BME280;53766;50.280;19.160;2023-05-14T08:04:05;98754.81;;;18.62;40.12
66857;BME280;53766;50.280;19.160;2023-05-14T08:06:33;98753.78;;;18.63;40.15
66857;BME280;53766;50.280;19.160;2023-05-14T08:09:00;98765.88;;;18.65;40.02
66857;BME280;53766;50.280;19.160;2023-05-14T08:11:28;98750.69;;;18.66;40.11
66857;BME280;53766;50.280;19.160;2023-05-14T08:13:55;98741.69;;;18.67;40.23
66857;BME280;53766;50.280;19.160;2023-05-14T08:16:23;98749.50;;;18.68;40.17
66857;BME280;53766;50.280;19.160;2023-05-14T08:18:52;98738.59;;;18.70;40.18
66857;BME280;53766;50.280;19.160;2023-05-14T08:21:19;98739.44;;;18.70;40.20
66857;BME280;53766;50.280;19.160;2023-05-14T08:23:47;98738.22;;;18.73;39.82
66857;BME280;53766;50.280;19.160;2023-05-14T08:26:14;98733.09;;;18.71;40.07
66857;BME280;53766;50.280;19.160;2023-05-14T08:28:42;98729.19;;;18.74;40.15
66857;BME280;53766;50.280;19.160;2023-05-14T08:31:09;98723.84;;;18.74;40.13
66857;BME280;53766;50.280;19.160;2023-05-14T08:33:37;98715.03;;;18.74;40.12
66857;BME280;53766;50.280;19.160;2023-05-14T08:36:06;98711.13;;;18.76;40.13
66857;BME280;53766;50.280;19.160;2023-05-14T08:38:33;98706.84;;;18.75;40.15
66857;BME280;53766;50.280;19.160;2023-05-14T08:41:02;98714.63;;;18.77;39.92
66857;BME280;53766;50.280;19.160;2023-05-14T08:44:10;98710.13;;;18.77;39.87
66857;BME280;53766;50.280;19.160;2023-05-14T08:46:39;98711.78;;;18.78;39.92
66857;BME280;53766;50.280;19.160;2023-05-14T08:49:46;98704.41;;;18.80;39.94
66857;BME280;53766;50.280;19.160;2023-05-14T08:52:15;98699.06;;;18.80;39.69
66857;BME280;53766;50.280;19.160;2023-05-14T08:54:45;98702.56;;;18.81;39.85
66857;BME280;53766;50.280;19.160;2023-05-14T08:57:15;98695.38;;;18.81;40.03
66857;BME280;53766;50.280;19.160;2023-05-14T08:59:44;98697.84;;;18.83;39.92
66857;BME280;53766;50.280;19.160;2023-05-14T09:02:13;98695.81;;;18.85;39.85
66857;BME280;53766;50.280;19.160;2023-05-14T09:04:41;98697.47;;;18.86;39.90
66857;BME280;53766;50.280;19.160;2023-05-14T09:07:09;98695.63;;;18.86;39.80
66857;BME280;53766;50.280;19.160;2023-05-14T09:09:37;98691.09;;;18.87;39.85
66857;BME280;53766;50.280;19.160;2023-05-14T09:12:05;98690.91;;;18.88;39.87
66857;BME280;53766;50.280;19.160;2023-05-14T09:14:32;98688.22;;;18.88;39.88
66857;BME280;53766;50.280;19.160;2023-05-14T09:17:01;98681.84;;;18.89;39.92
66857;BME280;53766;50.280;19.160;2023-05-14T09:19:28;98689.84;;;18.89;39.78
66857;BME280;53766;50.280;19.160;2023-05-14T09:21:57;98689.47;;;18.93;39.81
66857;BME280;53766;50.280;19.160;2023-05-14T09:24:26;98685.16;;;18.91;39.90
66857;BME280;53766;50.280;19.160;2023-05-14T09:26:57;98687.22;;;18.96;40.08
66857;BME280;53766;50.280;19.160;2023-05-14T09:29:26;98681.88;;;18.96;39.96
66857;BME280;53766;50.280;19.160;2023-05-14T09:31:55;98677.16;;;18.98;39.96
66857;BME280;53766;50.280;19.160;2023-05-14T09:39:24;98678.22;;;19.04;40.14
66857;BME280;53766;50.280;19.160;2023-05-14T09:41:52;98675.94;;;19.07;40.30
66857;BME280;53766;50.280;19.160;2023-05-14T09:44:21;98680.25;;;19.08;40.15
66857;BME280;53766;50.280;19.160;2023-05-14T09:46:49;98681.91;;;19.09;40.24
66857;BME280;53766;50.280;19.160;2023-05-14T09:49:17;98674.50;;;19.11;40.39
66857;BME280;53766;50.280;19.160;2023-05-14T09:51:45;98661.16;;;19.11;40.25
66857;BME280;53766;50.280;19.160;2023-05-14T09:54:13;98659.34;;;19.12;40.31
66857;BME280;53766;50.280;19.160;2023-05-14T09:56:42;98662.63;;;19.14;40.26
66857;BME280;53766;50.280;19.160;2023-05-14T09:59:09;98665.69;;;19.18;40.43
66857;BME280;53766;50.280;19.160;2023-05-14T10:01:37;98660.16;;;19.19;40.25
66857;BME280;53766;50.280;19.160;2023-05-14T10:04:08;98649.47;;;19.19;40.35
66857;BME280;53766;50.280;19.160;2023-05-14T10:06:38;98649.06;;;19.22;40.39
66857;BME280;53766;50.280;19.160;2023-05-14T10:09:11;98640.03;;;19.23;40.15
66857;BME280;53766;50.280;19.160;2023-05-14T10:11:43;98635.31;;;19.25;40.14
66857;BME280;53766;50.280;19.160;2023-05-14T10:14:25;98634.28;;;19.26;39.98
66857;BME280;53766;50.280;19.160;2023-05-14T10:16:55;98625.25;;;19.27;40.07
66857;BME280;53766;50.280;19.160;2023-05-14T10:19:25;98624.22;;;19.28;40.07
66857;BME280;53766;50.280;19.160;2023-05-14T10:22:01;98617.88;;;19.29;40.10
66857;BME280;53766;50.280;19.160;2023-05-14T10:24:30;98608.81;;;19.30;40.05
66857;BME280;53766;50.280;19.160;2023-05-14T10:26:59;98610.47;;;19.31;40.04
66857;BME280;53766;50.280;19.160;2023-05-14T10:29:33;98610.47;;;19.31;39.81
66857;BME280;53766;50.280;19.160;2023-05-14T10:32:05;98605.13;;;19.31;40.00
66857;BME280;53766;50.280;19.160;2023-05-14T10:34:40;98601.41;;;19.32;40.06
66857;BME280;53766;50.280;19.160;2023-05-14T10:37:12;98595.25;;;19.32;39.91
66857;BME280;53766;50.280;19.160;2023-05-14T10:42:12;98583.75;;;19.31;39.92
66857;BME280;53766;50.280;19.160;2023-05-14T10:44:53;98578.44;;;19.31;39.89
66857;BME280;53766;50.280;19.160;2023-05-14T10:47:22;98589.91;;;19.32;39.90
66857;BME280;53766;50.280;19.160;2023-05-14T10:49:53;98590.72;;;19.32;39.93
66857;BME280;53766;50.280;19.160;2023-05-14T10:52:23;98583.34;;;19.35;39.78
66857;BME280;53766;50.280;19.160;2023-05-14T10:54:53;98579.63;;;19.36;39.77
66857;BME280;53766;50.280;19.160;2023-05-14T10:57:23;98570.59;;;19.37;39.80
66857;BME280;53766;50.280;19.160;2023-05-14T10:59:53;98569.56;;;19.38;39.75
66857;BME280;53766;50.280;19.160;2023-05-14T11:02:32;98569.78;;;19.36;39.89
66857;BME280;53766;50.280;19.160;2023-05-14T11:05:07;98575.53;;;19.40;39.72
66857;BME280;53766;50.280;19.160;2023-05-14T11:10:11;98573.47;;;19.42;39.74
66857;BME280;53766;50.280;19.160;2023-05-14T11:12:41;98570.78;;;19.42;39.75
66857;BME280;53766;50.280;19.160;2023-05-14T11:15:11;98570.19;;;19.40;39.73
66857;BME280;53766;50.280;19.160;2023-05-14T11:17:40;98568.34;;;19.40;39.75
66857;BME280;53766;50.280;19.160;2023-05-14T11:20:09;98564.84;;;19.40;39.69
66857;BME280;53766;50.280;19.160;2023-05-14T11:22:38;98559.50;;;19.40;39.71
66857;BME280;53766;50.280;19.160;2023-05-14T11:25:07;98550.47;;;19.41;39.72
66857;BME280;53766;50.280;19.160;2023-05-14T11:27:36;98559.50;;;19.40;39.78
66857;BME280;53766;50.280;19.160;2023-05-14T11:30:10;98548.81;;;19.40;39.66
66857;BME280;53766;50.280;19.160;2023-05-14T11:32:38;98547.19;;;19.39;39.44
66857;BME280;53766;50.280;19.160;2023-05-14T11:35:06;98545.53;;;19.38;39.55
66857;BME280;53766;50.280;19.160;2023-05-14T11:37:34;98551.72;;;19.38;39.52
66857;BME280;53766;50.280;19.160;2023-05-14T11:40:06;98554.16;;;19.40;39.50
66857;BME280;53766;50.280;19.160;2023-05-14T11:42:36;98552.53;;;19.39;39.41
66857;BME280;53766;50.280;19.160;2023-05-14T11:45:04;98557.06;;;19.38;39.44
66857;BME280;53766;50.280;19.160;2023-05-14T11:47:31;98550.88;;;19.38;39.29
66857;BME280;53766;50.280;19.160;2023-05-14T11:49:59;98554.16;;;19.40;39.39
66857;BME280;53766;50.280;19.160;2023-05-14T11:52:27;98548.81;;;19.40;39.23
66857;BME280;53766;50.280;19.160;2023-05-14T11:54:54;98547.19;;;19.39;39.20
66857;BME280;53766;50.280;19.160;2023-05-14T11:57:22;98543.47;;;19.40;39.22
66857;BME280;53766;50.280;19.160;2023-05-14T11:59:54;98536.06;;;19.42;39.24
66857;BME280;53766;50.280;19.160;2023-05-14T12:02:26;98532.38;;;19.43;39.26
66857;BME280;53766;50.280;19.160;2023-05-14T12:04:56;98529.72;;;19.43;39.20
66857;BME280;53766;50.280;19.160;2023-05-14T12:07:27;98527.03;;;19.43;39.06
66857;BME280;53766;50.280;19.160;2023-05-14T12:09:59;98519.66;;;19.45;39.14
66857;BME280;53766;50.280;19.160;2023-05-14T12:12:33;98521.28;;;19.46;39.00
66857;BME280;53766;50.280;19.160;2023-05-14T12:15:09;98528.28;;;19.47;39.20
66857;BME280;53766;50.280;19.160;2023-05-14T12:17:37;98506.91;;;19.47;39.09
66857;BME280;53766;50.280;19.160;2023-05-14T12:20:10;98512.25;;;19.47;39.06
66857;BME280;53766;50.280;19.160;2023-05-14T12:22:40;98503.19;;;19.48;39.05
66857;BME280;53766;50.280;19.160;2023-05-14T12:25:12;98494.97;;;19.49;39.24
66857;BME280;53766;50.280;19.160;2023-05-14T12:27:40;98492.31;;;19.49;38.92
66857;BME280;53766;50.280;19.160;2023-05-14T12:30:08;98479.75;;;19.50;39.02
66857;BME280;53766;50.280;19.160;2023-05-14T12:32:38;98480.56;;;19.50;39.15
66857;BME280;53766;50.280;19.160;2023-05-14T12:35:08;98479.75;;;19.50;39.06
66857;BME280;53766;50.280;19.160;2023-05-14T12:37:36;98477.09;;;19.50;38.99
66857;BME280;53766;50.280;19.160;2023-05-14T12:40:06;98479.75;;;19.50;39.06
66857;BME280;53766;50.280;19.160;2023-05-14T12:42:36;98463.75;;;19.50;39.14
66857;BME280;53766;50.280;19.160;2023-05-14T12:45:04;98465.38;;;19.51;38.95
66857;BME280;53766;50.280;19.160;2023-05-14T12:47:47;98476.03;;;19.51;39.11
66857;BME280;53766;50.280;19.160;2023-05-14T12:50:15;98465.38;;;19.51;39.07
66857;BME280;53766;50.280;19.160;2023-05-14T12:52:42;98466.22;;;19.51;39.07
66857;BME280;53766;50.280;19.160;2023-05-14T12:55:10;98457.16;;;19.52;38.99
66857;BME280;53766;50.280;19.160;2023-05-14T12:57:37;98451.59;;;19.54;39.09
66857;BME280;53766;50.280;19.160;2023-05-14T13:00:07;98454.28;;;19.54;38.98
66857;BME280;53766;50.280;19.160;2023-05-14T13:02:40;98452.22;;;19.56;39.24
66857;BME280;53766;50.280;19.160;2023-05-14T13:05:10;98446.88;;;19.56;39.02
66857;BME280;53766;50.280;19.160;2023-05-14T13:07:38;98444.19;;;19.56;39.15
66857;BME280;53766;50.280;19.160;2023-05-14T13:10:06;98438.66;;;19.58;39.28
66857;BME280;53766;50.280;19.160;2023-05-14T13:12:34;98434.13;;;19.58;39.20
66857;BME280;53766;50.280;19.160;2023-05-14T13:15:02;98427.97;;;19.58;39.11